createdAt,value
2023-05-03T00:01:35.806Z,102778.22
2023-05-03T00:06:37.943Z,102776.44
2023-05-03T00:11:35.243Z,102772.94
2023-05-03T00:16:35.217Z,102770.38
2023-05-03T00:21:32.121Z,102777.44
2023-05-03T00:26:28.978Z,102779.16
2023-05-03T00:31:25.445Z,102771.31
2023-05-03T00:36:21.993Z,102786.34
2023-05-03T00:41:19.678Z,102775.03
2023-05-03T00:46:17.680Z,102776.03
2023-05-03T00:51:15.116Z,102787.47
2023-05-03T00:56:16.498Z,102781.41
2023-05-03T01:01:13.036Z,102763.16
2023-05-03T01:06:37.332Z,102777.13
2023-05-03T01:11:52.442Z,102787.91
2023-05-03T01:16:58.891Z,102784.50
2023-05-03T01:22:07.817Z,102788.06
2023-05-03T01:27:05.368Z,102799.63
2023-05-03T01:32:05.269Z,102806.66
2023-05-03T01:37:03.258Z,102797.09
2023-05-03T01:42:02.046Z,102800.59
2023-05-03T01:46:58.528Z,102799.75
2023-05-03T01:51:55.081Z,102805.84
2023-05-03T01:56:51.791Z,102801.41
2023-05-03T02:01:48.291Z,102797.75
2023-05-03T02:06:44.849Z,102799.41
2023-05-03T02:11:41.606Z,102801.19
2023-05-03T02:16:39.095Z,102804.59
2023-05-03T02:21:37.821Z,102811.38
2023-05-03T02:26:34.303Z,102816.50
2023-05-03T02:31:30.912Z,102818.09
2023-05-03T02:36:27.712Z,102807.53
2023-05-03T02:41:24.219Z,102826.69
2023-05-03T02:46:20.894Z,102826.56
2023-05-03T02:51:19.808Z,102822.84
2023-05-03T02:56:16.534Z,102828.06
2023-05-03T03:01:13.193Z,102822.75
2023-05-03T03:06:09.774Z,102827.06
2023-05-03T03:11:06.890Z,102815.53
2023-05-03T03:16:03.673Z,102832.19
2023-05-03T03:21:03.313Z,102825.88
2023-05-03T03:26:00.061Z,102816.25
2023-05-03T03:30:56.988Z,102833.75
2023-05-03T03:35:54.608Z,102825.81
2023-05-03T03:40:52.268Z,102829.34
2023-05-03T03:45:48.932Z,102830.19
2023-05-03T03:50:45.602Z,102830.06
2023-05-03T03:55:57.286Z,102811.66
2023-05-03T04:00:53.824Z,102816.00
2023-05-03T04:05:51.458Z,102823.06
2023-05-03T04:10:56.335Z,102818.75
2023-05-03T04:16:23.510Z,102810.94
2023-05-03T04:21:42.696Z,102804.78
2023-05-03T04:26:40.384Z,102819.41
2023-05-03T04:31:37.207Z,102827.09
2023-05-03T04:36:34.410Z,102830.53
2023-05-03T04:41:30.954Z,102831.19
2023-05-03T04:46:27.719Z,102846.03
2023-05-03T04:51:24.316Z,102851.28
2023-05-03T04:56:26.026Z,102852.91
2023-05-03T05:25:39.085Z,102880.41
2023-05-03T13:53:43.958Z,102778.16
2023-05-03T14:05:01.614Z,102744.84
2023-05-03T14:28:44.100Z,102754.50
2023-05-03T14:33:41.024Z,102748.63
2023-05-03T14:38:37.675Z,102749.53
2023-05-03T14:43:37.622Z,102749.25
2023-05-03T14:48:34.108Z,102748.53
2023-05-03T14:53:30.892Z,102748.69
2023-05-03T14:58:27.532Z,102740.94
2023-05-03T15:03:24.559Z,102740.34
2023-05-03T15:08:30.027Z,102733.31
2023-05-03T15:13:31.875Z,102730.00
2023-05-03T15:18:28.539Z,102724.59
2023-05-03T15:23:25.080Z,102729.78
2023-05-03T15:28:21.651Z,102721.69
2023-05-03T15:33:18.342Z,102720.53
2023-05-03T15:38:14.832Z,102721.97
2023-05-03T15:43:11.260Z,102716.75
2023-05-03T15:48:07.938Z,102717.63
2023-05-03T15:53:04.440Z,102710.47
2023-05-03T15:58:00.942Z,102712.59
2023-05-03T16:02:58.057Z,102716.28
2023-05-03T16:08:00.514Z,102719.03
2023-05-03T16:12:57.065Z,102714.94
2023-05-03T16:17:54.249Z,102707.06
2023-05-03T16:22:59.573Z,102683.19
2023-05-03T16:28:02.146Z,102678.94
2023-05-03T16:40:25.212Z,102678.22
2023-05-03T16:45:22.662Z,102679.25
2023-05-03T17:02:18.208Z,102661.44
2023-05-03T17:18:54.748Z,102681.75
2023-05-03T17:23:53.257Z,102668.00
2023-05-03T17:28:51.610Z,102675.88
2023-05-03T17:33:49.211Z,102663.06
2023-05-03T17:38:45.792Z,102666.56
2023-05-03T17:43:42.812Z,102652.22
2023-05-03T17:48:44.048Z,102666.22
2023-05-03T17:53:41.632Z,102656.78
2023-05-03T17:58:38.172Z,102664.91
2023-05-03T18:03:36.614Z,102663.38
2023-05-03T18:08:33.227Z,102669.81
2023-05-03T20:29:09.971Z,102743.41
2023-05-03T20:34:06.709Z,102735.81
2023-05-03T20:39:14.245Z,102750.81
2023-05-03T20:44:12.440Z,102750.03
2023-05-03T20:49:41.586Z,102747.56
2023-05-03T21:13:08.508Z,102736.41
2023-05-03T21:24:16.549Z,102734.34
2023-05-03T21:42:07.937Z,102744.94
2023-05-03T22:18:37.995Z,102720.47
2023-05-03T22:23:37.117Z,102707.59
2023-05-03T22:39:36.180Z,102708.00
2023-05-03T22:44:33.356Z,102698.50
2023-05-03T22:49:29.907Z,102686.25
2023-05-03T22:54:27.064Z,102697.03
2023-05-03T22:59:23.599Z,102687.47
2023-05-03T23:04:20.173Z,102687.50
2023-05-03T23:09:16.702Z,102685.09
2023-05-03T23:14:13.189Z,102692.97
2023-05-03T23:19:09.927Z,102678.38
2023-05-03T23:24:07.169Z,102671.47
2023-05-03T23:29:03.706Z,102682.09
2023-05-03T23:34:00.427Z,102691.78
2023-05-03T23:38:57.250Z,102675.50
2023-05-03T23:43:53.738Z,102671.22
2023-05-03T23:48:50.434Z,102686.84
2023-05-03T23:53:47.031Z,102675.59
2023-05-03T23:59:21.716Z,102674.88
